Time;durP1;ratioP1;P1;durP2;ratioP2;P2;SDS_P1;SDS_P2;PMS_P1;PMS_P2;Temp;Humidity;BMP_temperature;BMP_pressure;BME280_temperature;BME280_humidity;BME280_pressure;Samples;Min_cycle;Max_cycle;Signal;HPM_P1;HPM_P2
2024/03/20 00:00:57;;;;;;;16.30;6.20;;;;;;;3.59;100.00;100480.80;104749;1265;208584;-54
2024/03/20 00:03:26;;;;;;;13.40;5.40;;;;;;;3.55;100.00;100475.95;104814;1268;59623;-54
2024/03/20 00:05:54;;;;;;;14.60;5.00;;;;;;;3.51;100.00;100473.73;105081;1262;72646;-55
2024/03/20 00:08:22;;;;;;;14.00;5.50;;;;;;;3.48;100.00;100476.59;104585;1268;66948;-53
2024/03/20 00:10:49;;;;;;;14.50;5.00;;;;;;;3.45;100.00;100474.41;104842;1263;72732;-54
2024/03/20 00:13:17;;;;;;;14.00;5.60;;;;;;;3.41;100.00;100475.27;105046;1262;60903;-54
2024/03/20 00:15:45;;;;;;;14.60;5.40;;;;;;;3.38;100.00;100475.05;105185;1264;60371;-54
2024/03/20 00:18:14;;;;;;;13.00;5.30;;;;;;;3.34;100.00;100472.44;104983;1262;73103;-54
2024/03/20 00:20:41;;;;;;;13.90;4.80;;;;;;;3.31;100.00;100471.37;104881;1265;67132;-54
2024/03/20 00:23:09;;;;;;;18.20;5.50;;;;;;;3.26;100.00;100466.98;105002;1266;71449;-54
2024/03/20 00:25:37;;;;;;;17.00;5.70;;;;;;;3.20;100.00;100469.84;104900;1263;61207;-52
2024/03/20 00:28:05;;;;;;;16.20;5.10;;;;;;;3.15;100.00;100474.73;105013;1268;60349;-54
2024/03/20 00:30:32;;;;;;;13.00;5.00;;;;;;;3.09;100.00;100478.84;105001;1262;73938;-53
2024/03/20 00:33:00;;;;;;;15.50;4.60;;;;;;;3.03;100.00;100478.48;105063;1263;68007;-53
2024/03/20 00:35:28;;;;;;;11.20;4.00;;;;;;;2.99;100.00;100481.58;104899;1263;72618;-53
2024/03/20 00:37:56;;;;;;;11.00;4.30;;;;;;;2.95;100.00;100476.94;105056;1268;60784;-52
2024/03/20 00:40:24;;;;;;;7.70;3.50;;;;;;;2.92;100.00;100477.04;104919;1263;60354;-53
2024/03/20 00:42:51;;;;;;;10.10;4.00;;;;;;;2.89;100.00;100475.56;105692;1252;72690;-53
2024/03/20 00:45:19;;;;;;;7.60;4.10;;;;;;;2.86;100.00;100474.95;105537;1257;65764;-53
2024/03/20 00:47:46;;;;;;;10.10;4.00;;;;;;;2.86;100.00;100474.77;105581;1252;72813;-53
2024/03/20 00:50:14;;;;;;;13.10;4.20;;;;;;;2.83;100.00;100472.13;105382;1256;60345;-53
2024/03/20 00:52:42;;;;;;;9.80;3.80;;;;;;;2.80;100.00;100473.52;105687;1251;60425;-53
2024/03/20 00:55:19;;;;;;;13.90;4.40;;;;;;;2.80;100.00;100472.90;105497;1251;73956;-53
2024/03/20 00:57:47;;;;;;;14.80;4.60;;;;;;;2.75;100.00;100472.61;105619;1255;65695;-53
2024/03/20 01:00:17;;;;;;;11.90;4.30;;;;;;;2.74;100.00;100474.04;105393;1255;72727;-53
2024/03/20 01:02:45;;;;;;;13.60;4.80;;;;;;;2.74;100.00;100473.54;105399;1259;60534;-52
2024/03/20 01:05:13;;;;;;;15.80;4.70;;;;;;;2.73;100.00;100476.20;105681;1251;60527;-53
2024/03/20 01:07:41;;;;;;;11.80;4.20;;;;;;;2.71;100.00;100477.55;105570;1251;72549;-55
2024/03/20 01:10:09;;;;;;;10.40;3.60;;;;;;;2.67;100.00;100479.59;105776;1251;65692;-53
2024/03/20 01:12:36;;;;;;;14.80;3.90;;;;;;;2.64;100.00;100478.81;105525;1253;71475;-53
2024/03/20 01:15:04;;;;;;;7.30;3.70;;;;;;;2.61;100.00;100479.44;105629;1257;60434;-53
2024/03/20 01:17:33;;;;;;;9.50;3.80;;;;;;;2.58;100.00;100481.23;105603;1253;60368;-53
2024/03/20 01:20:02;;;;;;;10.70;3.20;;;;;;;2.56;100.00;100482.76;105590;1252;73839;-53
2024/03/20 01:22:33;;;;;;;13.50;4.30;;;;;;;2.52;100.00;100486.50;105470;1259;67100;-52
2024/03/20 01:25:04;;;;;;;10.50;3.90;;;;;;;2.48;100.00;100484.47;105632;1253;71933;-52
2024/03/20 01:27:32;;;;;;;;;;;;;;;2.45;100.00;100485.71;105661;1257;60459;-53
2024/03/20 01:30:00;;;;;;;9.90;3.80;;;;;;;2.41;100.00;100485.29;105740;1253;60594;-54
2024/03/20 01:32:28;;;;;;;7.70;3.60;;;;;;;2.39;100.00;100489.07;105617;1251;73286;-54
2024/03/20 01:34:55;;;;;;;12.30;3.40;;;;;;;2.35;100.00;100489.74;105482;1251;67054;-53
2024/03/20 01:37:23;;;;;;;12.30;4.70;;;;;;;2.30;100.00;100486.02;105611;1253;71463;-54
2024/03/20 01:39:51;;;;;;;9.70;3.50;;;;;;;2.26;100.00;100485.38;105795;1254;60503;-54
2024/03/20 01:42:18;;;;;;;10.10;3.80;;;;;;;2.22;100.00;100493.56;105570;1256;60425;-53
2024/03/20 01:44:46;;;;;;;10.40;3.80;;;;;;;2.17;100.00;100498.42;105809;1256;73920;-53
2024/03/20 01:47:14;;;;;;;10.50;3.50;;;;;;;2.14;100.00;100502.54;105816;1257;65682;-53
2024/03/20 01:49:42;;;;;;;13.30;4.10;;;;;;;2.12;100.00;100498.45;105778;1253;70440;-54
2024/03/20 01:52:09;;;;;;;15.00;4.20;;;;;;;2.10;100.00;100497.95;106139;1256;60447;-54
2024/03/20 01:54:37;;;;;;;10.10;5.20;;;;;;;2.08;100.00;100499.64;105670;1251;60399;-54
2024/03/20 01:57:04;;;;;;;9.70;4.40;;;;;;;2.06;100.00;100499.28;105857;1251;72566;-56
2024/03/20 01:59:34;;;;;;;11.70;4.20;;;;;;;2.02;100.00;100505.58;105699;1254;65856;-53
2024/03/20 02:02:02;;;;;;;9.10;4.10;;;;;;;2.01;100.00;100501.23;105795;1251;72672;-54
2024/03/20 02:04:29;;;;;;;10.60;4.40;;;;;;;1.99;100.00;100503.27;105556;1257;60416;-53
2024/03/20 02:07:00;;;;;;;15.00;4.30;;;;;;;1.97;100.00;100500.55;105744;1251;61509;-55
2024/03/20 02:09:27;;;;;;;14.00;4.10;;;;;;;1.93;100.00;100498.78;105711;1251;72790;-55
2024/03/20 02:11:55;;;;;;;9.50;4.10;;;;;;;1.89;100.00;100499.31;105753;1257;65714;-54
2024/03/20 02:14:22;;;;;;;14.30;4.70;;;;;;;1.85;100.00;100504.04;105660;1251;72718;-55
2024/03/20 02:16:50;;;;;;;14.90;4.70;;;;;;;1.81;100.00;100502.34;105662;1251;61173;-54
2024/03/20 02:19:17;;;;;;;13.70;4.50;;;;;;;1.78;100.00;100507.70;105698;1257;60800;-54
2024/03/20 02:21:45;;;;;;;11.80;4.50;;;;;;;1.75;100.00;100512.54;105688;1252;72577;-54
2024/03/20 02:24:13;;;;;;;14.40;5.40;;;;;;;1.70;100.00;100518.55;105678;1256;65766;-54
2024/03/20 02:26:40;;;;;;;11.10;5.20;;;;;;;1.66;100.00;100518.37;105832;1257;71535;-53
2024/03/20 02:29:08;;;;;;;8.80;4.30;;;;;;;1.63;100.00;100522.92;105731;1253;60590;-52
2024/03/20 02:31:36;;;;;;;14.00;5.80;;;;;;;1.59;100.00;100522.33;105637;1251;60536;-52
2024/03/20 02:34:04;;;;;;;15.80;5.50;;;;;;;1.54;100.00;100526.19;105753;1251;73936;-53
2024/03/20 02:36:31;;;;;;;13.00;4.50;;;;;;;1.49;100.00;100527.42;105920;1251;65683;-53
2024/03/20 02:38:59;;;;;;;20.50;8.30;;;;;;;1.43;100.00;100526.98;105830;1253;71477;-53
2024/03/20 02:41:27;;;;;;;14.40;5.30;;;;;;;1.40;100.00;100533.09;105835;1257;60958;-53
2024/03/20 02:43:55;;;;;;;13.50;5.00;;;;;;;1.35;100.00;100537.86;105908;1256;60328;-54
2024/03/20 02:46:22;;;;;;;15.00;6.10;;;;;;;1.30;100.00;100537.92;105749;1251;72565;-53
2024/03/20 02:48:50;;;;;;;14.40;5.30;;;;;;;1.27;100.00;100540.04;105842;1255;66920;-53
2024/03/20 02:51:17;;;;;;;12.30;6.00;;;;;;;1.24;100.00;100545.91;105880;1251;72668;-53
2024/03/20 02:53:45;;;;;;;16.10;6.10;;;;;;;1.21;100.00;100542.85;105875;1251;61302;-53
2024/03/20 02:56:13;;;;;;;14.60;6.10;;;;;;;1.17;100.00;100543.48;105684;1256;60735;-53
2024/03/20 02:58:40;;;;;;;17.50;5.60;;;;;;;1.14;100.00;100541.67;105581;1251;72626;-53
2024/03/20 03:01:08;;;;;;;13.40;5.10;;;;;;;1.12;100.00;100546.16;105690;1256;66934;-52
2024/03/20 03:03:36;;;;;;;18.60;7.40;;;;;;;1.08;100.00;100551.90;105722;1251;72779;-54
2024/03/20 03:06:03;;;;;;;16.10;7.50;;;;;;;1.04;100.00;100550.98;105603;1258;60937;-53
2024/03/20 03:08:31;;;;;;;17.80;6.70;;;;;;;1.00;100.00;100550.09;105739;1252;60339;-53
2024/03/20 03:10:58;;;;;;;14.90;6.50;;;;;;;0.99;100.00;100554.83;105854;1255;73894;-53
2024/03/20 03:13:26;;;;;;;17.90;7.30;;;;;;;1.00;100.00;100560.88;105856;1256;65754;-55
2024/03/20 03:15:53;;;;;;;18.00;7.90;;;;;;;1.01;100.00;100571.39;105506;1257;71456;-54
2024/03/20 03:18:21;;;;;;;15.40;7.40;;;;;;;1.05;100.00;100577.16;105729;1257;60494;-53
2024/03/20 03:20:48;;;;;;;19.10;8.10;;;;;;;1.06;100.00;100576.17;105379;1253;60556;-53
2024/03/20 03:23:16;;;;;;;19.30;7.70;;;;;;;1.08;100.00;100581.52;105822;1256;73871;-53
2024/03/20 03:25:44;;;;;;;19.00;8.50;;;;;;;1.10;100.00;100580.87;105496;1257;66937;-53
2024/03/20 03:28:11;;;;;;;19.10;8.60;;;;;;;1.10;100.00;100582.22;107215;1253;72779;-54
2024/03/20 03:30:39;;;;;;;16.20;7.80;;;;;;;1.08;100.00;100582.69;105807;1258;60549;-54
2024/03/20 03:33:06;;;;;;;17.50;8.40;;;;;;;1.08;100.00;100584.79;105665;1257;60480;-54
2024/03/20 03:35:34;;;;;;;14.00;7.70;;;;;;;1.08;100.00;100588.73;105788;1253;72675;-55
2024/03/20 03:38:01;;;;;;;22.30;10.10;;;;;;;1.05;100.00;100581.23;105510;1253;66483;-54
2024/03/20 03:40:29;;;;;;;14.90;8.90;;;;;;;1.03;100.00;100591.64;105778;1253;73168;-54
2024/03/20 03:42:57;;;;;;;17.70;9.30;;;;;;;1.00;100.00;100602.63;105594;1253;60537;-53
2024/03/20 03:45:24;;;;;;;17.80;8.60;;;;;;;0.98;100.00;100600.73;105744;1253;60480;-53
2024/03/20 03:47:52;;;;;;;17.40;9.80;;;;;;;0.96;100.00;100604.50;105765;1255;73886;-54
2024/03/20 03:50:19;;;;;;;21.40;9.70;;;;;;;0.95;100.00;100610.85;105616;1257;66946;-53
2024/03/20 03:52:47;;;;;;;16.60;10.60;;;;;;;0.96;100.00;100617.10;105661;1258;72838;-54
2024/03/20 03:55:15;;;;;;;21.20;11.10;;;;;;;0.99;100.00;100617.80;105555;1254;61389;-54
2024/03/20 03:57:43;;;;;;;20.20;10.40;;;;;;;1.00;100.00;100620.27;105925;1253;61221;-53
2024/03/20 04:00:12;;;;;;;19.10;9.70;;;;;;;1.01;100.00;100624.33;105614;1253;74735;-54
2024/03/20 04:02:39;;;;;;;17.50;10.20;;;;;;;1.01;100.00;100625.19;105733;1253;67054;-53
2024/03/20 04:05:07;;;;;;;18.90;9.90;;;;;;;1.03;100.00;100629.84;105857;1253;72688;-52
2024/03/20 04:07:34;;;;;;;23.30;11.70;;;;;;;1.07;100.00;100629.52;105829;1255;61171;-53
2024/03/20 04:10:03;;;;;;;18.70;10.20;;;;;;;1.11;100.00;100635.91;105757;1257;61375;-53
2024/03/20 04:12:30;;;;;;;20.40;10.70;;;;;;;1.13;100.00;100639.87;105724;1252;73381;-53
2024/03/20 04:14:58;;;;;;;21.70;10.40;;;;;;;1.13;100.00;100636.91;105642;1257;65825;-53
2024/03/20 04:17:25;;;;;;;17.50;10.60;;;;;;;1.14;100.00;100639.58;105615;1268;72688;-53
2024/03/20 04:19:53;;;;;;;19.00;9.40;;;;;;;1.18;100.00;100643.07;105709;1258;62109;-54
2024/03/20 04:22:21;;;;;;;22.30;10.70;;;;;;;1.23;100.00;100646.65;105681;1253;61141;-53
2024/03/20 04:24:48;;;;;;;20.30;10.80;;;;;;;1.26;100.00;100645.63;105622;1251;73426;-53
2024/03/20 04:27:16;;;;;;;24.10;10.80;;;;;;;1.29;100.00;100652.05;105882;1254;65979;-54
2024/03/20 04:29:43;;;;;;;20.70;10.70;;;;;;;1.32;100.00;100657.63;105310;1259;71502;-53
2024/03/20 04:32:11;;;;;;;21.40;11.00;;;;;;;1.37;100.00;100653.66;105571;1253;61393;-53
2024/03/20 04:34:39;;;;;;;18.00;11.10;;;;;;;1.43;100.00;100654.77;105643;1259;61140;-53
2024/03/20 04:37:06;;;;;;;23.30;11.30;;;;;;;1.48;100.00;100661.73;105697;1257;74694;-53
2024/03/20 04:39:35;;;;;;;24.40;12.40;;;;;;;1.53;100.00;100658.64;105514;1258;66134;-53
2024/03/20 04:42:04;;;;;;;26.60;12.70;;;;;;;1.57;100.00;100664.14;105696;1258;72805;-53
2024/03/20 04:44:31;;;;;;;24.20;12.80;;;;;;;1.61;100.00;100668.63;105723;1253;61326;-52
2024/03/20 04:46:59;;;;;;;28.00;14.10;;;;;;;1.66;100.00;100674.13;105715;1258;61225;-52
2024/03/20 04:49:26;;;;;;;28.60;13.80;;;;;;;1.68;100.00;100685.05;105786;1253;74713;-52
2024/03/20 04:51:54;;;;;;;25.20;13.90;;;;;;;1.70;100.00;100690.42;105566;1253;66935;-55
2024/03/20 04:54:22;;;;;;;29.20;13.10;;;;;;;1.71;100.00;100697.70;105628;1254;71746;-52
2024/03/20 04:56:51;;;;;;;30.20;14.30;;;;;;;1.71;100.00;100695.84;105628;1258;61407;-52
2024/03/20 04:59:19;;;;;;;28.10;13.60;;;;;;;1.71;100.00;100697.23;107238;1251;61158;-55
2024/03/20 05:01:47;;;;;;;26.40;13.20;;;;;;;1.74;100.00;100693.59;105389;1259;75410;-52
2024/03/20 05:04:14;;;;;;;28.80;14.90;;;;;;;1.78;100.00;100703.90;105666;1257;66910;-52
2024/03/20 05:06:42;;;;;;;26.20;14.10;;;;;;;1.79;100.00;100702.73;105751;1253;72768;-54
2024/03/20 05:09:09;;;;;;;26.00;13.80;;;;;;;1.81;100.00;100704.64;105459;1259;61473;-52
2024/03/20 05:11:37;;;;;;;29.80;14.00;;;;;;;1.84;100.00;100707.02;105730;1253;61346;-53
2024/03/20 05:14:05;;;;;;;29.30;13.80;;;;;;;1.86;100.00;100713.91;105737;1251;74712;-52
2024/03/20 05:16:32;;;;;;;28.10;14.00;;;;;;;1.87;100.00;100708.89;105389;1254;67407;-53
2024/03/20 05:19:00;;;;;;;34.30;14.00;;;;;;;1.88;100.00;100706.23;105680;1257;71451;-53
2024/03/20 05:21:27;;;;;;;30.70;14.90;;;;;;;1.90;100.00;100708.77;105661;1256;61151;-53
2024/03/20 05:23:54;;;;;;;28.80;14.80;;;;;;;1.92;100.00;100709.45;105414;1254;61424;-52
2024/03/20 05:26:22;;;;;;;31.60;14.20;;;;;;;1.97;100.00;100714.42;105637;1253;73395;-53
2024/03/20 05:28:50;;;;;;;28.70;13.80;;;;;;;1.99;100.00;100718.92;105512;1258;65727;-52
2024/03/20 05:31:28;;;;;;;24.90;13.60;;;;;;;2.00;100.00;100717.27;105609;1255;72612;-53
2024/03/20 05:33:56;;;;;;;23.50;13.70;;;;;;;2.06;100.00;100721.63;105413;1258;61857;-54
2024/03/20 05:36:23;;;;;;;27.00;13.50;;;;;;;2.12;100.00;100724.45;105682;1253;61327;-54
2024/03/20 05:38:51;;;;;;;25.50;14.20;;;;;;;2.16;100.00;100727.55;105529;1253;74691;-55
2024/03/20 05:41:18;;;;;;;30.10;15.50;;;;;;;2.17;100.00;100735.02;105845;1257;65657;-55
2024/03/20 05:43:46;;;;;;;29.60;14.50;;;;;;;2.15;100.00;100734.48;105618;1253;72862;-54
2024/03/20 05:46:14;;;;;;;28.40;14.30;;;;;;;2.16;100.00;100734.59;105781;1258;61292;-53
2024/03/20 05:48:42;;;;;;;24.40;13.10;;;;;;;2.16;100.00;100733.88;105648;1254;61296;-53
2024/03/20 05:51:10;;;;;;;32.50;14.20;;;;;;;2.20;100.00;100733.94;105741;1253;73439;-54
2024/03/20 05:53:37;;;;;;;28.60;11.90;;;;;;;2.27;100.00;100737.34;105660;1258;67111;-53
2024/03/20 05:56:05;;;;;;;20.80;11.80;;;;;;;2.34;100.00;100735.42;105570;1251;72745;-53
2024/03/20 05:58:33;;;;;;;29.10;13.40;;;;;;;2.47;100.00;100740.92;105755;1258;61293;-53
2024/03/20 06:01:00;;;;;;;29.70;11.50;;;;;;;2.55;100.00;100738.10;105714;1259;61156;-53
2024/03/20 06:03:28;;;;;;;24.70;12.30;;;;;;;2.59;100.00;100729.58;105746;1253;73495;-53
2024/03/20 06:05:56;;;;;;;23.50;12.10;;;;;;;2.68;100.00;100727.49;105609;1259;69484;-53
2024/03/20 06:08:23;;;;;;;30.30;13.40;;;;;;;2.81;100.00;100723.87;105557;1251;72680;-53
2024/03/20 06:10:51;;;;;;;23.20;12.10;;;;;;;2.93;100.00;100730.28;105608;1251;61386;-54
2024/03/20 06:13:19;;;;;;;26.80;12.50;;;;;;;3.03;100.00;100737.25;105522;1253;61376;-54
2024/03/20 06:15:47;;;;;;;24.20;12.40;;;;;;;3.11;100.00;100731.41;105386;1251;76474;-53
2024/03/20 06:18:15;;;;;;;24.40;13.30;;;;;;;3.20;100.00;100727.75;105680;1251;69230;-53
2024/03/20 06:20:43;;;;;;;29.50;13.40;;;;;;;3.31;100.00;100729.99;105514;1254;72710;-53
2024/03/20 06:23:10;;;;;;;22.60;11.90;;;;;;;3.45;100.00;100732.84;105416;1259;61233;-52
2024/03/20 06:25:38;;;;;;;25.90;14.40;;;;;;;3.63;100.00;100736.00;105664;1258;61133;-54
2024/03/20 06:28:05;;;;;;;30.70;13.70;;;;;;;3.82;100.00;100739.04;105602;1253;74691;-53
2024/03/20 06:30:33;;;;;;;27.20;12.80;;;;;;;4.08;100.00;100740.65;105611;1253;66950;-52
2024/03/20 06:33:01;;;;;;;26.10;12.30;;;;;;;4.26;100.00;100739.34;105819;1252;72712;-53
2024/03/20 06:35:29;;;;;;;25.70;13.60;;;;;;;4.30;100.00;100728.81;105663;1253;61326;-53
2024/03/20 06:37:59;;;;;;;32.70;12.30;;;;;;;4.36;100.00;100726.88;105590;1258;61279;-53
2024/03/20 06:40:32;;;;;;;20.80;11.40;;;;;;;4.50;100.00;100720.89;105643;1253;74701;-54
2024/03/20 06:43:00;;;;;;;29.40;12.70;;;;;;;4.75;100.00;100708.73;105479;1253;66954;-54
2024/03/20 06:45:33;;;;;;;28.90;11.60;;;;;;;5.35;100.00;100709.66;105597;1253;72140;-54
2024/03/20 06:48:01;;;;;;;27.40;12.50;;;;;;;5.82;100.00;100703.62;105535;1259;61286;-54
2024/03/20 06:50:28;;;;;;;26.80;13.20;;;;;;;6.20;100.00;100696.90;105722;1251;61394;-54
2024/03/20 06:52:59;;;;;;;25.10;12.90;;;;;;;6.67;100.00;100686.73;105366;1252;74672;-54
2024/03/20 06:55:27;;;;;;;26.10;12.60;;;;;;;7.16;100.00;100677.61;105741;1257;65689;-55
2024/03/20 06:57:55;;;;;;;27.10;13.70;;;;;;;7.69;100.00;100662.48;105736;1259;71434;-53
2024/03/20 07:00:24;;;;;;;27.00;13.60;;;;;;;8.17;100.00;100648.33;105571;1252;61419;-54
2024/03/20 07:02:53;;;;;;;24.00;11.80;;;;;;;8.57;100.00;100632.36;105697;1257;61942;-54
2024/03/20 07:05:21;;;;;;;26.10;12.20;;;;;;;8.82;100.00;100622.25;105701;1253;74710;-53
2024/03/20 07:07:48;;;;;;;27.80;12.10;;;;;;;8.89;100.00;100614.68;105625;1251;69509;-53
2024/03/20 07:10:17;;;;;;;20.80;11.50;;;;;;;9.00;100.00;100609.67;105707;1253;75371;-53
2024/03/20 07:12:44;;;;;;;23.30;11.60;;;;;;;9.17;100.00;100604.94;105659;1255;61560;-54
2024/03/20 07:15:12;;;;;;;24.70;11.70;;;;;;;9.35;100.00;100612.77;105634;1253;61476;-53
2024/03/20 07:17:39;;;;;;;30.40;14.80;;;;;;;9.21;100.00;100612.09;105432;1257;74678;-54
2024/03/20 07:20:11;;;;;;;22.00;11.10;;;;;;;9.07;100.00;100604.08;105615;1259;67102;-53
2024/03/20 07:22:38;;;;;;;24.00;11.30;;;;;;;9.22;100.00;100599.84;105576;1253;74857;-53
2024/03/20 07:25:07;;;;;;;28.30;11.70;;;;;;;9.53;100.00;100598.87;105657;1253;61803;-54
2024/03/20 07:27:35;;;;;;;27.40;11.00;;;;;;;9.70;100.00;100595.77;105787;1253;62239;-52
2024/03/20 07:30:04;;;;;;;18.50;10.30;;;;;;;9.93;100.00;100597.91;105906;1252;77130;-54
2024/03/20 07:32:32;;;;;;;24.00;10.30;;;;;;;10.16;100.00;100590.20;105825;1257;67972;-55
2024/03/20 07:35:00;;;;;;;27.80;12.20;;;;;;;10.29;100.00;100587.41;105555;1253;73961;-54
2024/03/20 07:37:28;;;;;;;24.20;12.00;;;;;;;10.27;100.00;100584.98;105290;1253;61257;-54
2024/03/20 07:39:56;;;;;;;23.40;11.20;;;;;;;10.36;100.00;100580.84;105484;1258;62049;-54
2024/03/20 07:42:24;;;;;;;22.30;10.70;;;;;;;10.55;100.00;100577.61;105511;1253;77766;-54
2024/03/20 07:44:52;;;;;;;22.40;10.90;;;;;;;10.71;100.00;100577.55;105579;1257;69319;-55
2024/03/20 07:47:20;;;;;;;22.50;10.10;;;;;;;10.74;100.00;100575.50;105465;1254;73456;-54
2024/03/20 07:49:47;;;;;;;33.20;11.70;;;;;;;10.69;100.00;100575.13;105710;1258;61641;-54
2024/03/20 07:52:15;;;;;;;21.70;10.90;;;;;;;10.83;100.00;100576.51;105914;1254;60968;-54
2024/03/20 07:54:43;;;;;;;27.50;11.00;;;;;;;11.02;100.00;100573.98;105672;1258;77112;-54
2024/03/20 07:57:11;;;;;;;28.20;11.40;;;;;;;11.14;100.00;100575.69;105619;1254;69592;-54
2024/03/20 07:59:39;;;;;;;28.20;12.10;;;;;;;11.07;99.97;100569.80;105591;1253;72724;-54
2024/03/20 08:02:06;;;;;;;24.90;11.10;;;;;;;11.07;100.00;100575.08;105606;1259;61850;-55
2024/03/20 08:04:38;;;;;;;25.50;9.70;;;;;;;11.17;100.00;100577.42;105283;1261;62304;-54
2024/03/20 08:07:09;;;;;;;23.40;9.90;;;;;;;11.27;99.30;100575.83;105590;1253;76143;-54
2024/03/20 08:09:36;;;;;;;22.50;9.40;;;;;;;11.31;98.07;100573.52;105582;1251;69304;-53
2024/03/20 08:12:04;;;;;;;22.90;9.10;;;;;;;11.46;94.38;100568.06;105712;1254;75133;-54
2024/03/20 08:14:32;;;;;;;19.20;9.40;;;;;;;11.53;91.43;100570.66;105754;1254;62972;-54
2024/03/20 08:17:00;;;;;;;25.80;10.70;;;;;;;11.73;92.05;100562.98;105554;1256;61874;-53
2024/03/20 08:19:27;;;;;;;25.90;9.90;;;;;;;12.09;87.84;100563.20;105402;1253;76054;-54
2024/03/20 08:21:55;;;;;;;22.10;9.50;;;;;;;12.19;81.36;100558.91;105669;1253;69844;-57
2024/03/20 08:24:22;;;;;;;20.90;8.50;;;;;;;12.10;80.63;100563.62;105714;1255;75308;-56
2024/03/20 08:26:50;;;;;;;22.40;9.30;;;;;;;12.13;81.68;100557.90;105649;1258;63439;-56
2024/03/20 08:29:21;;;;;;;20.70;9.30;;;;;;;12.22;79.22;100561.69;105555;1257;62405;-56
2024/03/20 08:32:04;;;;;;;21.10;9.30;;;;;;;12.08;76.43;100558.61;104973;1258;76371;-56
2024/03/20 08:34:32;;;;;;;26.60;10.00;;;;;;;12.09;75.89;100562.16;105163;1264;69048;-56
2024/03/20 08:36:59;;;;;;;29.00;9.80;;;;;;;12.08;74.24;100554.46;105158;1264;74191;-55
2024/03/20 08:39:27;;;;;;;22.60;9.00;;;;;;;12.14;73.72;100547.52;104975;1265;61923;-52
2024/03/20 08:41:55;;;;;;;28.00;9.00;;;;;;;12.22;73.11;100548.45;105140;1265;61288;-52
2024/03/20 08:44:23;;;;;;;14.60;8.00;;;;;;;12.33;72.68;100545.83;105317;1259;75503;-54
2024/03/20 08:46:50;;;;;;;18.00;7.80;;;;;;;12.48;72.17;100547.16;104981;1264;68227;-54
2024/03/20 08:49:18;;;;;;;18.40;7.80;;;;;;;12.65;70.49;100541.55;105220;1259;74362;-54
2024/03/20 08:51:47;;;;;;;21.10;8.00;;;;;;;12.78;67.98;100543.05;105204;1259;61565;-53
2024/03/20 08:54:15;;;;;;;23.20;7.60;;;;;;;12.81;66.38;100539.98;105458;1263;62676;-55
2024/03/20 08:56:43;;;;;;;18.10;8.20;;;;;;;12.83;65.73;100538.31;105014;1260;76460;-54
2024/03/20 08:59:10;;;;;;;13.70;6.60;;;;;;;12.95;64.93;100540.80;105167;1265;68568;-54
2024/03/20 09:01:38;;;;;;;15.90;6.70;;;;;;;13.05;63.22;100536.64;105096;1259;74030;-53
2024/03/20 09:04:06;;;;;;;16.50;7.20;;;;;;;13.11;61.87;100540.74;105619;1258;61243;-54
2024/03/20 09:06:34;;;;;;;17.90;8.00;;;;;;;13.13;61.29;100538.91;105292;1259;61543;-54
2024/03/20 09:09:01;;;;;;;16.60;7.90;;;;;;;13.15;60.00;100535.65;105571;1257;77618;-54
2024/03/20 09:11:29;;;;;;;17.60;7.10;;;;;;;13.14;60.85;100538.19;106785;1254;67856;-54
2024/03/20 09:13:58;;;;;;;13.90;6.90;;;;;;;13.28;60.54;100532.97;105502;1259;74163;-54
2024/03/20 09:16:26;;;;;;;20.90;6.90;;;;;;;13.29;58.01;100543.73;105706;1259;64291;-54
2024/03/20 09:18:54;;;;;;;19.10;6.70;;;;;;;13.08;57.15;100534.27;105746;1254;63317;-54
2024/03/20 09:21:22;;;;;;;16.10;6.50;;;;;;;12.99;58.83;100534.02;105712;1257;77885;-54
2024/03/20 09:23:49;;;;;;;19.90;7.20;;;;;;;13.05;58.94;100537.86;105660;1255;69591;-55
2024/03/20 09:26:17;;;;;;;18.90;6.60;;;;;;;13.10;58.49;100533.13;105892;1253;75110;-55
2024/03/20 09:28:45;;;;;;;16.90;7.50;;;;;;;13.24;59.35;100535.67;105552;1259;62447;-54
2024/03/20 09:31:13;;;;;;;16.50;6.80;;;;;;;13.41;57.92;100529.61;105812;1258;61377;-54
2024/03/20 09:33:41;;;;;;;12.20;6.60;;;;;;;13.59;56.63;100528.27;105669;1259;75368;-54
2024/03/20 09:36:09;;;;;;;14.90;6.70;;;;;;;13.71;54.63;100529.89;105710;1259;68219;-53
2024/03/20 09:38:36;;;;;;;20.40;6.60;;;;;;;13.69;53.78;100532.58;105355;1259;75466;-53
2024/03/20 09:41:08;;;;;;;16.50;5.60;;;;;;;13.62;52.87;100531.27;105653;1254;63877;-52
2024/03/20 09:43:36;;;;;;;12.20;4.50;;;;;;;13.62;52.74;100535.66;105593;1253;61394;-53
2024/03/20 09:46:03;;;;;;;14.70;6.10;;;;;;;13.58;51.69;100528.84;105753;1258;76071;-55
2024/03/20 09:48:32;;;;;;;14.50;5.70;;;;;;;13.60;51.52;100534.02;105330;1259;67336;-53
2024/03/20 09:51:09;;;;;;;12.60;5.40;;;;;;;13.61;51.90;100533.65;105541;1259;74450;-52
2024/03/20 09:53:37;;;;;;;13.80;5.80;;;;;;;13.75;52.48;100525.42;105561;1259;61582;-55
2024/03/20 09:56:09;;;;;;;15.30;5.70;;;;;;;14.00;51.46;100528.74;105442;1255;62387;-54
2024/03/20 09:58:39;;;;;;;15.30;5.50;;;;;;;14.03;49.80;100520.85;105582;1254;75698;-53
2024/03/20 10:01:15;;;;;;;13.50;4.60;;;;;;;14.06;49.85;100522.48;105692;1259;68740;-53
2024/03/20 10:03:47;;;;;;;15.60;5.80;;;;;;;14.11;49.34;100524.46;105547;1257;75199;-54
2024/03/20 10:06:15;;;;;;;;;;;;;;;14.12;48.44;100531.48;105677;1259;61383;-52
2024/03/20 10:08:42;;;;;;;12.60;4.90;;;;;;;14.11;48.11;100519.86;105658;1258;61280;-52
2024/03/20 10:11:12;;;;;;;14.70;5.60;;;;;;;14.19;48.44;100514.91;105604;1257;77115;-54
2024/03/20 10:13:41;;;;;;;9.50;4.80;;;;;;;14.37;48.28;100518.67;105883;1258;69239;-55
2024/03/20 10:16:12;;;;;;;12.90;5.20;;;;;;;14.43;46.91;100516.52;105706;1260;74964;-52
2024/03/20 10:18:53;;;;;;;14.60;5.00;;;;;;;14.30;46.02;100514.11;105821;1256;61756;-53
2024/03/20 10:21:22;;;;;;;17.90;5.40;;;;;;;14.16;46.19;100506.73;105688;1257;62562;-53
2024/03/20 10:23:52;;;;;;;17.40;5.20;;;;;;;14.11;46.81;100505.38;105518;1257;76037;-53
2024/03/20 10:26:20;;;;;;;9.20;5.00;;;;;;;14.18;47.47;100503.54;105717;1255;68452;-53
2024/03/20 10:28:49;;;;;;;14.20;5.70;;;;;;;14.33;46.84;100507.58;105548;1259;73589;-54
2024/03/20 10:31:20;;;;;;;13.60;6.40;;;;;;;14.34;46.37;100505.89;105578;1254;61787;-55
2024/03/20 10:33:57;;;;;;;19.50;6.20;;;;;;;14.36;46.70;100501.41;105443;1258;62521;-52
2024/03/20 10:36:25;;;;;;;16.40;6.00;;;;;;;14.39;46.32;100497.59;105497;1257;76062;-52
2024/03/20 10:38:53;;;;;;;13.60;5.40;;;;;;;14.37;46.15;100493.30;105674;1257;68946;-55
2024/03/20 10:41:20;;;;;;;14.70;5.50;;;;;;;14.45;45.77;100492.25;105651;1258;74180;-54
2024/03/20 10:43:48;;;;;;;10.60;5.40;;;;;;;14.50;45.58;100488.08;105540;1254;61596;-55
2024/03/20 10:46:16;;;;;;;17.30;6.10;;;;;;;14.54;44.90;100489.68;105717;1259;62563;-55
2024/03/20 10:48:44;;;;;;;13.90;7.20;;;;;;;14.37;45.16;100489.83;105908;1256;77965;-55
2024/03/20 10:51:13;;;;;;;15.40;6.00;;;;;;;14.20;45.49;100489.70;105590;1264;68308;-52
2024/03/20 10:53:41;;;;;;;13.40;5.70;;;;;;;14.06;45.76;100489.25;105761;1257;75409;-54
2024/03/20 10:56:12;;;;;;;10.70;5.80;;;;;;;14.04;46.55;100487.10;105396;1259;63597;-52
2024/03/20 10:58:39;;;;;;;15.60;6.00;;;;;;;14.05;46.88;100489.58;105173;1257;62780;-52
2024/03/20 11:01:09;;;;;;;14.30;5.50;;;;;;;14.04;46.58;100489.80;105402;1254;76027;-52
2024/03/20 11:03:40;;;;;;;11.60;5.90;;;;;;;13.95;46.40;100494.47;105548;1261;69075;-55
2024/03/20 11:06:40;;;;;;;10.90;5.20;;;;;;;13.79;46.32;100486.98;105591;1260;75791;-54
2024/03/20 11:09:08;;;;;;;12.20;5.10;;;;;;;13.67;47.06;100486.83;105664;1265;61574;-55
2024/03/20 11:11:36;;;;;;;13.70;6.20;;;;;;;13.68;47.87;100480.80;105228;1258;62030;-55